Time;durP1;ratioP1;P1;durP2;ratioP2;P2;SDS_P1;SDS_P2;PMS_P1;PMS_P2;Temp;Humidity;BMP_temperature;BMP_pressure;BME280_temperature;BME280_humidity;BME280_pressure;Samples;Min_cycle;Max_cycle;Signal;HPM_P1;HPM_P2
2022/12/07 00:00:06;;;;;;;65.22;10.38;;;;;;;;;;5077416;28;20225;-79
2022/12/07 00:02:34;;;;;;;66.32;10.25;;;;;;;;;;5078255;28;20490;-79
2022/12/07 00:05:02;;;;;;;70.20;10.70;;;;;;;;;;5078067;28;20256;-79
2022/12/07 00:07:29;;;;;;;68.93;11.82;;;;;;;;;;5077799;28;20209;-77
2022/12/07 00:09:56;;;;;;;67.10;10.55;;;;;;;;;;5075753;28;20228;-77
2022/12/07 00:12:23;;;;;;;66.53;10.60;;;;;;;;;;5076054;28;20210;-77
2022/12/07 00:14:50;;;;;;;69.30;11.95;;;;;;;;;;5077817;28;20205;-79
2022/12/07 00:17:18;;;;;;;66.82;10.73;;;;;;;;;;5077566;28;20209;-79
2022/12/07 00:19:45;;;;;;;64.40;9.70;;;;;;;;;;5077034;28;20231;-79
2022/12/07 00:22:13;;;;;;;67.45;11.45;;;;;;;;;;5077541;28;20204;-79
2022/12/07 00:24:40;;;;;;;67.07;11.05;;;;;;;;;;5077712;28;20377;-79
2022/12/07 00:27:07;;;;;;;67.65;11.43;;;;;;;;;;5078042;28;20218;-79
2022/12/07 00:29:36;;;;;;;69.40;12.50;;;;;;;;;;5076406;28;20346;-80
2022/12/07 00:32:04;;;;;;;67.43;11.23;;;;;;;;;;5077899;28;20209;-79
2022/12/07 00:34:31;;;;;;;68.75;10.40;;;;;;;;;;5077744;28;20205;-80
2022/12/07 00:36:58;;;;;;;65.47;10.25;;;;;;;;;;5076864;28;20213;-80
2022/12/07 00:39:26;;;;;;;67.28;11.13;;;;;;;;;;5076523;28;20307;-79
2022/12/07 00:41:53;;;;;;;65.82;9.98;;;;;;;;;;5077254;28;20296;-79
2022/12/07 00:44:20;;;;;;;68.03;11.40;;;;;;;;;;5077615;28;20223;-79
2022/12/07 00:46:48;;;;;;;68.03;11.27;;;;;;;;;;5077534;28;20210;-79
2022/12/07 00:49:15;;;;;;;66.95;11.05;;;;;;;;;;5076477;28;20315;-79
2022/12/07 00:51:42;;;;;;;66.40;10.48;;;;;;;;;;5077223;28;20580;-79
2022/12/07 00:54:09;;;;;;;66.85;11.50;;;;;;;;;;5077995;28;20215;-80
2022/12/07 00:56:37;;;;;;;66.32;10.63;;;;;;;;;;5077876;28;20209;-80
2022/12/07 00:59:05;;;;;;;67.20;11.52;;;;;;;;;;5077464;28;20215;-79
2022/12/07 01:01:33;;;;;;;68.70;12.13;;;;;;;;;;5077920;28;20678;-79
2022/12/07 01:04:01;;;;;;;65.55;10.70;;;;;;;;;;5077800;28;20231;-79
2022/12/07 01:06:28;;;;;;;66.05;10.63;;;;;;;;;;5077832;28;20219;-79
2022/12/07 01:08:55;;;;;;;68.85;9.95;;;;;;;;;;5074645;28;20225;-78
2022/12/07 01:11:23;;;;;;;66.28;11.20;;;;;;;;;;5073952;28;20205;-76
2022/12/07 01:13:52;;;;;;;67.78;11.60;;;;;;;;;;5072656;28;20669;-75
2022/12/07 01:16:20;;;;;;;70.75;11.50;;;;;;;;;;5072682;28;20208;-75
2022/12/07 01:18:48;;;;;;;64.88;9.85;;;;;;;;;;5071814;28;20765;-76
2022/12/07 01:21:16;;;;;;;64.22;9.98;;;;;;;;;;5072879;28;20580;-75
2022/12/07 01:23:44;;;;;;;67.57;10.27;;;;;;;;;;5072761;28;20294;-75
2022/12/07 01:26:12;;;;;;;67.65;11.38;;;;;;;;;;5072695;28;20227;-75
2022/12/07 01:28:39;;;;;;;66.10;10.68;;;;;;;;;;5071781;28;20242;-75
2022/12/07 01:31:09;;;;;;;65.13;10.60;;;;;;;;;;5072643;28;20251;-75
2022/12/07 01:33:37;;;;;;;66.65;11.25;;;;;;;;;;5072378;28;20674;-75
2022/12/07 01:36:04;;;;;;;66.95;11.32;;;;;;;;;;5072514;28;20201;-75
2022/12/07 01:38:32;;;;;;;65.85;10.55;;;;;;;;;;5071945;28;20210;-74
2022/12/07 01:41:00;;;;;;;68.28;11.45;;;;;;;;;;5072288;28;20319;-75
2022/12/07 01:43:28;;;;;;;67.47;10.95;;;;;;;;;;5072170;28;20241;-75
2022/12/07 01:45:55;;;;;;;67.13;11.40;;;;;;;;;;5072361;28;20215;-75
2022/12/07 01:48:26;;;;;;;66.72;10.43;;;;;;;;;;5072190;28;20243;-74
2022/12/07 01:50:54;;;;;;;69.20;11.60;;;;;;;;;;5071515;28;20228;-75
2022/12/07 01:53:22;;;;;;;66.95;11.02;;;;;;;;;;5072220;28;20205;-75
2022/12/07 01:55:51;;;;;;;68.07;11.57;;;;;;;;;;5072074;28;20301;-75
2022/12/07 01:58:18;;;;;;;66.75;11.10;;;;;;;;;;5071909;28;20208;-75
2022/12/07 02:00:45;;;;;;;67.57;11.32;;;;;;;;;;5071476;28;20233;-75
2022/12/07 02:03:15;;;;;;;67.28;11.77;;;;;;;;;;5072199;28;20587;-75
2022/12/07 02:05:44;;;;;;;67.70;12.00;;;;;;;;;;5072058;28;20235;-75
2022/12/07 02:08:13;;;;;;;68.47;12.93;;;;;;;;;;5071816;28;20225;-75
2022/12/07 02:10:41;;;;;;;69.47;12.00;;;;;;;;;;5071023;28;20310;-75
2022/12/07 02:13:11;;;;;;;67.30;12.48;;;;;;;;;;5072238;28;20614;-77
2022/12/07 02:15:47;;;;;;;71.63;11.95;;;;;;;;;;5072198;28;20212;-77
2022/12/07 02:18:17;;;;;;;71.20;11.65;;;;;;;;;;5072377;28;20211;-76
2022/12/07 02:20:48;;;;;;;70.68;12.52;;;;;;;;;;5071367;28;20719;-77
2022/12/07 02:23:33;;;;;;;70.63;12.63;;;;;;;;;;5072148;28;20557;-77
2022/12/07 02:26:12;;;;;;;67.53;11.50;;;;;;;;;;5072032;28;20220;-77
2022/12/07 02:28:43;;;;;;;71.25;13.13;;;;;;;;;;5070877;28;20251;-76
2022/12/07 02:31:14;;;;;;;69.85;12.68;;;;;;;;;;5069218;28;20236;-75
2022/12/07 02:33:43;;;;;;;69.65;12.43;;;;;;;;;;5071791;28;20215;-75
2022/12/07 02:36:12;;;;;;;66.38;11.35;;;;;;;;;;5071791;28;20204;-75
2022/12/07 02:38:41;;;;;;;69.55;12.13;;;;;;;;;;5070844;28;20694;-75
2022/12/07 02:41:11;;;;;;;71.32;12.50;;;;;;;;;;5071525;28;20238;-75
2022/12/07 02:43:41;;;;;;;70.95;12.00;;;;;;;;;;5071526;28;20214;-75
2022/12/07 02:46:09;;;;;;;68.03;11.30;;;;;;;;;;5071620;28;20208;-75
2022/12/07 02:48:40;;;;;;;69.38;11.85;;;;;;;;;;5070803;28;20229;-75
2022/12/07 02:51:07;;;;;;;70.30;11.88;;;;;;;;;;5071146;28;20228;-75
2022/12/07 02:53:35;;;;;;;75.22;14.40;;;;;;;;;;5071483;28;20667;-75
2022/12/07 02:56:04;;;;;;;71.22;13.88;;;;;;;;;;5071329;28;20207;-75
2022/12/07 02:58:36;;;;;;;70.88;13.20;;;;;;;;;;5071021;28;20201;-75
2022/12/07 03:01:06;;;;;;;69.95;13.27;;;;;;;;;;5071520;28;20259;-75
2022/12/07 03:03:35;;;;;;;71.70;13.73;;;;;;;;;;5071501;28;20211;-75
2022/12/07 03:06:09;;;;;;;68.82;12.38;;;;;;;;;;5071469;28;20207;-76
2022/12/07 03:08:44;;;;;;;70.10;13.73;;;;;;;;;;5071711;28;20234;-78
2022/12/07 03:11:12;;;;;;;72.38;13.82;;;;;;;;;;5074127;28;20671;-78
2022/12/07 03:13:42;;;;;;;71.60;13.57;;;;;;;;;;5074174;28;20212;-78
2022/12/07 03:16:11;;;;;;;71.63;14.60;;;;;;;;;;5073076;28;20333;-76
2022/12/07 03:18:40;;;;;;;74.13;14.07;;;;;;;;;;5070552;28;20222;-75
2022/12/07 03:21:12;;;;;;;71.18;13.68;;;;;;;;;;5071383;28;20259;-76
2022/12/07 03:23:40;;;;;;;69.90;12.05;;;;;;;;;;5071435;28;20208;-76
2022/12/07 03:26:10;;;;;;;70.43;13.18;;;;;;;;;;5071150;28;20239;-76
2022/12/07 03:28:39;;;;;;;69.95;13.13;;;;;;;;;;5071271;28;20232;-77
2022/12/07 03:31:11;;;;;;;70.72;12.05;;;;;;;;;;5073266;28;20224;-77
2022/12/07 03:33:41;;;;;;;68.15;11.95;;;;;;;;;;5074554;28;20191;-76
2022/12/07 03:36:13;;;;;;;69.10;11.85;;;;;;;;;;5074909;28;20211;-76
2022/12/07 03:38:42;;;;;;;69.20;11.82;;;;;;;;;;5074108;28;20621;-76
2022/12/07 03:41:11;;;;;;;70.10;13.40;;;;;;;;;;5074523;28;20233;-76
2022/12/07 03:43:38;;;;;;;70.50;12.73;;;;;;;;;;5075118;28;20201;-76
2022/12/07 03:46:10;;;;;;;68.55;12.23;;;;;;;;;;5074519;28;20635;-76
2022/12/07 03:48:38;;;;;;;69.85;13.35;;;;;;;;;;5073847;28;20285;-76
2022/12/07 03:51:08;;;;;;;68.97;12.15;;;;;;;;;;5074691;28;20238;-76
2022/12/07 03:53:39;;;;;;;69.38;12.70;;;;;;;;;;5074473;28;20211;-76
2022/12/07 03:56:06;;;;;;;70.13;11.65;;;;;;;;;;5074413;28;20210;-75
2022/12/07 03:58:34;;;;;;;67.85;11.18;;;;;;;;;;5073689;28;20231;-75
2022/12/07 04:01:01;;;;;;;68.07;12.35;;;;;;;;;;5074383;28;20232;-75
2022/12/07 04:03:28;;;;;;;66.95;11.68;;;;;;;;;;5074416;28;20215;-76
2022/12/07 04:05:55;;;;;;;68.88;11.02;;;;;;;;;;5074292;28;20556;-76
2022/12/07 04:08:23;;;;;;;69.65;11.25;;;;;;;;;;5074001;28;20208;-76
2022/12/07 04:10:51;;;;;;;68.82;11.98;;;;;;;;;;5073175;28;20232;-76
2022/12/07 04:13:18;;;;;;;70.32;10.93;;;;;;;;;;5074361;28;20210;-75
2022/12/07 04:15:45;;;;;;;67.15;11.55;;;;;;;;;;5074148;28;20680;-76
2022/12/07 04:18:12;;;;;;;68.70;12.50;;;;;;;;;;5076217;28;20218;-78
2022/12/07 04:20:40;;;;;;;71.25;12.88;;;;;;;;;;5075948;28;20219;-78
2022/12/07 04:23:07;;;;;;;68.88;12.50;;;;;;;;;;5076068;28;20214;-78
2022/12/07 04:25:34;;;;;;;72.95;13.80;;;;;;;;;;5075167;28;20217;-78
2022/12/07 04:28:02;;;;;;;70.78;12.77;;;;;;;;;;5075573;28;20209;-78
2022/12/07 04:30:29;;;;;;;73.90;13.50;;;;;;;;;;5074890;28;20712;-78
2022/12/07 04:32:56;;;;;;;75.95;14.07;;;;;;;;;;5076204;28;20210;-78
2022/12/07 04:35:23;;;;;;;73.25;12.50;;;;;;;;;;5075408;28;20203;-78
2022/12/07 04:37:51;;;;;;;71.30;13.30;;;;;;;;;;5075660;28;20303;-78
2022/12/07 04:40:18;;;;;;;70.15;13.55;;;;;;;;;;5074736;28;20572;-78
2022/12/07 04:42:45;;;;;;;71.55;13.30;;;;;;;;;;5075748;28;20206;-78
2022/12/07 04:45:13;;;;;;;71.72;13.23;;;;;;;;;;5075897;28;20214;-78
2022/12/07 04:47:40;;;;;;;72.68;13.65;;;;;;;;;;5075381;28;20695;-77
2022/12/07 04:50:08;;;;;;;74.28;13.82;;;;;;;;;;5074381;28;20324;-77
2022/12/07 04:52:35;;;;;;;71.03;13.30;;;;;;;;;;5075312;28;20684;-78
2022/12/07 04:55:02;;;;;;;73.22;13.60;;;;;;;;;;5075823;28;20208;-78
2022/12/07 04:57:29;;;;;;;72.47;13.55;;;;;;;;;;5074470;28;20679;-77
2022/12/07 04:59:57;;;;;;;73.95;14.32;;;;;;;;;;5074670;28;20220;-78
2022/12/07 05:02:25;;;;;;;75.28;14.65;;;;;;;;;;5076594;28;20279;-78
2022/12/07 05:04:52;;;;;;;73.35;14.02;;;;;;;;;;5076332;28;20640;-78
2022/12/07 05:07:19;;;;;;;75.32;14.20;;;;;;;;;;5076001;28;20218;-78
2022/12/07 05:09:46;;;;;;;70.85;13.50;;;;;;;;;;5075845;28;20232;-78
2022/12/07 05:12:13;;;;;;;71.45;14.40;;;;;;;;;;5075708;28;20291;-78
2022/12/07 05:14:41;;;;;;;75.70;12.15;;;;;;;;;;5075948;28;20208;-78
2022/12/07 05:17:08;;;;;;;75.22;14.15;;;;;;;;;;5075363;28;20581;-78
2022/12/07 05:19:36;;;;;;;72.75;14.45;;;;;;;;;;5075853;28;20310;-78
2022/12/07 05:22:03;;;;;;;72.25;14.02;;;;;;;;;;5073016;28;20723;-77
2022/12/07 05:24:30;;;;;;;72.22;12.75;;;;;;;;;;5074497;28;20212;-78
2022/12/07 05:26:58;;;;;;;72.90;14.60;;;;;;;;;;5075081;28;20303;-78
2022/12/07 05:29:25;;;;;;;69.85;12.27;;;;;;;;;;5074453;28;20234;-78
2022/12/07 05:31:52;;;;;;;71.15;14.15;;;;;;;;;;5075211;28;20704;-78
2022/12/07 05:34:19;;;;;;;70.72;13.48;;;;;;;;;;5074912;28;20217;-78
2022/12/07 05:36:47;;;;;;;71.88;12.70;;;;;;;;;;5075416;28;20666;-78
2022/12/07 05:39:14;;;;;;;73.82;14.30;;;;;;;;;;5073834;28;20221;-78
2022/12/07 05:44:26;;;;;;;71.40;13.05;;;;;;;;;;5074538;28;20198;-78
2022/12/07 05:46:54;;;;;;;72.65;13.55;;;;;;;;;;5074282;28;20215;-78
2022/12/07 05:49:21;;;;;;;75.78;14.00;;;;;;;;;;5073549;28;20232;-78
2022/12/07 05:51:49;;;;;;;70.28;13.35;;;;;;;;;;5075007;28;20259;-78
2022/12/07 05:54:16;;;;;;;71.55;12.90;;;;;;;;;;5076018;28;20302;-79
2022/12/07 05:56:43;;;;;;;72.13;14.85;;;;;;;;;;5075175;28;20207;-79
2022/12/07 05:59:27;;;;;;;76.10;15.38;;;;;;;;;;5073929;28;20238;-78
2022/12/07 06:01:55;;;;;;;70.10;12.73;;;;;;;;;;5073802;28;20207;-79
2022/12/07 06:04:22;;;;;;;74.57;14.68;;;;;;;;;;5074770;28;20306;-78
2022/12/07 06:06:51;;;;;;;72.07;14.00;;;;;;;;;;5075744;28;20214;-78
2022/12/07 06:09:19;;;;;;;72.90;13.63;;;;;;;;;;5073567;28;20685;-78
2022/12/07 06:14:31;;;;;;;78.43;13.32;;;;;;;;;;5075753;28;20636;-79
2022/12/07 06:16:58;;;;;;;72.20;13.70;;;;;;;;;;5073721;28;20684;-76
2022/12/07 06:19:25;;;;;;;72.68;14.77;;;;;;;;;;5071100;28;20229;-76
2022/12/07 06:21:54;;;;;;;71.32;13.32;;;;;;;;;;5071784;28;20690;-76
2022/12/07 06:24:21;;;;;;;76.80;13.88;;;;;;;;;;5071809;28;20224;-76
2022/12/07 06:26:48;;;;;;;70.75;13.23;;;;;;;;;;5071798;28;20298;-76
2022/12/07 06:29:15;;;;;;;73.60;13.80;;;;;;;;;;5071137;28;20227;-76
2022/12/07 06:31:43;;;;;;;77.43;15.57;;;;;;;;;;5072176;28;20202;-76
2022/12/07 06:34:11;;;;;;;71.80;13.30;;;;;;;;;;5071774;28;20211;-76
2022/12/07 06:36:38;;;;;;;71.50;12.93;;;;;;;;;;5071533;28;20202;-76
2022/12/07 06:39:08;;;;;;;76.57;15.30;;;;;;;;;;5071704;28;20204;-77
2022/12/07 06:41:35;;;;;;;73.60;14.82;;;;;;;;;;5071999;28;20209;-77
2022/12/07 06:44:03;;;;;;;77.00;14.77;;;;;;;;;;5072009;28;20211;-77
2022/12/07 06:46:30;;;;;;;75.65;16.52;;;;;;;;;;5071941;28;20299;-77
2022/12/07 06:48:57;;;;;;;73.20;14.73;;;;;;;;;;5071025;28;20576;-77
2022/12/07 06:51:24;;;;;;;73.78;14.60;;;;;;;;;;5071535;28;20233;-77
2022/12/07 06:53:51;;;;;;;72.65;14.05;;;;;;;;;;5073782;28;20207;-77
2022/12/07 06:56:20;;;;;;;72.50;15.15;;;;;;;;;;5072273;28;20680;-76
2022/12/07 06:58:47;;;;;;;72.57;14.18;;;;;;;;;;5071225;28;20299;-77
2022/12/07 07:01:14;;;;;;;76.97;16.45;;;;;;;;;;5072321;28;20199;-77
2022/12/07 07:03:42;;;;;;;75.82;16.13;;;;;;;;;;5072388;28;20218;-77
2022/12/07 07:06:09;;;;;;;74.22;15.27;;;;;;;;;;5072365;28;20214;-77
2022/12/07 07:08:37;;;;;;;73.13;15.15;;;;;;;;;;5073373;28;20293;-77
2022/12/07 07:11:04;;;;;;;76.40;16.08;;;;;;;;;;5075811;28;20246;-77
2022/12/07 07:13:33;;;;;;;77.43;16.15;;;;;;;;;;5075877;28;20222;-77
2022/12/07 07:16:00;;;;;;;77.38;16.60;;;;;;;;;;5076291;28;20215;-77
2022/12/07 07:18:27;;;;;;;75.63;15.93;;;;;;;;;;5075122;28;20217;-76
2022/12/07 07:20:55;;;;;;;73.15;14.50;;;;;;;;;;5077017;28;20231;-79
2022/12/07 07:23:22;;;;;;;76.85;16.77;;;;;;;;;;5079215;28;20207;-79
2022/12/07 07:25:49;;;;;;;73.03;14.93;;;;;;;;;;5078414;28;20221;-79
2022/12/07 07:28:17;;;;;;;75.80;17.00;;;;;;;;;;5078954;28;20210;-79
2022/12/07 07:30:45;;;;;;;79.28;18.23;;;;;;;;;;5077230;28;20229;-79
2022/12/07 07:33:13;;;;;;;73.75;15.25;;;;;;;;;;5078483;28;20208;-78
2022/12/07 07:35:40;;;;;;;75.60;16.58;;;;;;;;;;5078574;28;20301;-78
2022/12/07 07:38:07;;;;;;;79.20;15.95;;;;;;;;;;5078075;28;20565;-78
2022/12/07 07:40:34;;;;;;;79.68;16.52;;;;;;;;;;5077319;28;20222;-78
2022/12/07 07:43:02;;;;;;;79.05;15.10;;;;;;;;;;5077236;28;20289;-78
2022/12/07 07:45:29;;;;;;;72.82;14.32;;;;;;;;;;5077225;28;20293;-78
2022/12/07 07:47:57;;;;;;;75.45;14.75;;;;;;;;;;5077495;28;20576;-78
2022/12/07 07:50:24;;;;;;;77.80;15.93;;;;;;;;;;5075306;28;20232;-79
2022/12/07 07:52:51;;;;;;;78.55;16.25;;;;;;;;;;5078986;28;20208;-79
2022/12/07 07:55:19;;;;;;;77.03;15.90;;;;;;;;;;5078548;28;20299;-79
2022/12/07 07:57:46;;;;;;;77.40;16.45;;;;;;;;;;5079556;28;20210;-79
2022/12/07 08:00:14;;;;;;;75.95;14.30;;;;;;;;;;5078297;28;20248;-79
2022/12/07 08:02:42;;;;;;;73.53;15.43;;;;;;;;;;5079440;28;20212;-79
2022/12/07 08:05:11;;;;;;;76.22;16.25;;;;;;;;;;5078231;28;20252;-79
2022/12/07 08:07:38;;;;;;;74.00;15.23;;;;;;;;;;5079501;28;20208;-79
2022/12/07 08:10:06;;;;;;;79.00;18.20;;;;;;;;;;5077789;28;20734;-79
2022/12/07 08:12:36;;;;;;;78.10;16.48;;;;;;;;;;5078251;28;20573;-79
2022/12/07 08:15:04;;;;;;;76.03;17.15;;;;;;;;;;5078378;28;20734;-79
2022/12/07 08:17:31;;;;;;;74.80;15.77;;;;;;;;;;5078920;28;20208;-79
2022/12/07 08:19:58;;;;;;;74.60;14.60;;;;;;;;;;5076779;28;20659;-79
2022/12/07 08:22:26;;;;;;;72.25;15.40;;;;;;;;;;5076946;28;20291;-78
2022/12/07 08:24:53;;;;;;;70.75;13.88;;;;;;;;;;5076153;28;20307;-79
2022/12/07 08:27:23;;;;;;;74.05;14.48;;;;;;;;;;5078432;28;20315;-79
2022/12/07 08:29:50;;;;;;;74.60;14.13;;;;;;;;;;5077142;28;20222;-79
2022/12/07 08:32:17;;;;;;;71.65;12.52;;;;;;;;;;5078435;28;20209;-79
2022/12/07 08:34:45;;;;;;;70.70;13.73;;;;;;;;;;5078049;28;20295;-79
2022/12/07 08:37:12;;;;;;;72.35;12.70;;;;;;;;;;5078802;28;20209;-79
2022/12/07 08:39:40;;;;;;;70.93;13.55;;;;;;;;;;5076901;28;20221;-79
2022/12/07 08:42:07;;;;;;;72.82;13.57;;;;;;;;;;5077961;28;20273;-79
2022/12/07 08:44:40;;;;;;;73.00;13.25;;;;;;;;;;5077628;28;20205;-79
2022/12/07 08:47:08;;;;;;;73.32;13.73;;;;;;;;;;5077571;28;20205;-79
2022/12/07 08:49:37;;;;;;;68.63;13.27;;;;;;;;;;5077123;28;20232;-78
2022/12/07 08:52:06;;;;;;;75.70;13.60;;;;;;;;;;5078287;28;20224;-78
2022/12/07 08:54:35;;;;;;;70.85;12.75;;;;;;;;;;5078444;28;20244;-78
2022/12/07 08:57:04;;;;;;;67.60;10.52;;;;;;;;;;5078189;28;20412;-79
2022/12/07 08:59:31;;;;;;;69.72;11.25;;;;;;;;;;5077024;28;20603;-78
2022/12/07 09:01:59;;;;;;;68.22;10.75;;;;;;;;;;5078105;28;20241;-78
2022/12/07 09:04:26;;;;;;;68.00;10.95;;;;;;;;;;5077145;28;20209;-78
2022/12/07 09:06:53;;;;;;;70.22;10.48;;;;;;;;;;5077893;28;20209;-79
2022/12/07 09:09:20;;;;;;;74.70;12.00;;;;;;;;;;5076941;28;20317;-79
2022/12/07 09:11:47;;;;;;;68.50;11.55;;;;;;;;;;5078268;28;20232;-79
2022/12/07 09:14:17;;;;;;;71.50;13.23;;;;;;;;;;5078222;28;20209;-79
2022/12/07 09:16:44;;;;;;;67.93;11.50;;;;;;;;;;5077878;28;20529;-79
2022/12/07 09:19:11;;;;;;;72.20;15.10;;;;;;;;;;5077630;28;20311;-78
2022/12/07 09:21:38;;;;;;;83.00;16.43;;;;;;;;;;5078848;28;20538;-80
2022/12/07 09:24:06;;;;;;;85.67;28.83;;;;;;;;;;5078548;28;20511;-80
2022/12/07 09:26:33;;;;;;;73.53;15.77;;;;;;;;;;5078972;28;20983;-80
2022/12/07 09:29:00;;;;;;;67.20;8.90;;;;;;;;;;5077894;28;20515;-80
2022/12/07 09:31:28;;;;;;;63.20;7.80;;;;;;;;;;5077445;28;20579;-79
2022/12/07 09:33:56;;;;;;;64.27;8.13;;;;;;;;;;5078426;28;20519;-80
2022/12/07 09:36:23;;;;;;;64.57;7.97;;;;;;;;;;5078796;28;20490;-80
2022/12/07 09:38:50;;;;;;;64.70;7.87;;;;;;;;;;5077577;28;20487;-80
2022/12/07 09:41:18;;;;;;;66.50;8.47;;;;;;;;;;5078361;28;20454;-79
2022/12/07 09:43:46;;;;;;;71.50;9.00;;;;;;;;;;5078783;28;20484;-80
2022/12/07 09:46:17;;;;;;;62.03;6.90;;;;;;;;;;5077066;28;20948;-80
2022/12/07 09:48:45;;;;;;;65.17;8.20;;;;;;;;;;5076969;28;20452;-80
2022/12/07 09:51:16;;;;;;;64.00;6.43;;;;;;;;;;5077395;28;20487;-80
2022/12/07 09:53:43;;;;;;;63.37;7.57;;;;;;;;;;5078033;28;20948;-80
2022/12/07 09:56:13;;;;;;;61.77;6.60;;;;;;;;;;5078699;28;20460;-80
2022/12/07 09:58:40;;;;;;;61.17;6.10;;;;;;;;;;5077325;28;20511;-80
2022/12/07 10:01:12;;;;;;;63.57;7.00;;;;;;;;;;5076900;28;20472;-80
2022/12/07 10:03:40;;;;;;;62.33;5.80;;;;;;;;;;5077315;28;20452;-80
2022/12/07 10:06:09;;;;;;;64.20;6.30;;;;;;;;;;5077745;28;20525;-80
2022/12/07 10:08:36;;;;;;;61.00;6.17;;;;;;;;;;5076947;28;21142;-80
2022/12/07 10:11:04;;;;;;;62.70;6.20;;;;;;;;;;5077481;28;20482;-80
2022/12/07 10:13:36;;;;;;;62.53;6.83;;;;;;;;;;5077361;28;20451;-80
2022/12/07 10:16:03;;;;;;;60.87;5.63;;;;;;;;;;5077667;28;20458;-80
2022/12/07 10:18:31;;;;;;;61.97;6.40;;;;;;;;;;5077544;28;20798;-80
2022/12/07 10:21:03;;;;;;;61.67;5.90;;;;;;;;;;5077753;28;20529;-80
2022/12/07 10:23:32;;;;;;;61.00;5.60;;;;;;;;;;5077312;28;20461;-80
2022/12/07 10:25:59;;;;;;;61.73;5.93;;;;;;;;;;5075959;28;20455;-81
2022/12/07 10:28:34;;;;;;;60.40;5.43;;;;;;;;;;5076493;28;20462;-80
2022/12/07 10:31:04;;;;;;;62.27;6.10;;;;;;;;;;5076360;28;20493;-81
2022/12/07 10:33:33;;;;;;;60.70;5.83;;;;;;;;;;5077710;28;20507;-80
2022/12/07 10:36:01;;;;;;;61.97;5.60;;;;;;;;;;5077942;28;20534;-80
2022/12/07 10:38:31;;;;;;;61.77;5.40;;;;;;;;;;5078302;28;20518;-80
2022/12/07 10:41:07;;;;;;;60.73;5.30;;;;;;;;;;5075849;28;20551;-80
2022/12/07 10:43:34;;;;;;;59.60;5.20;;;;;;;;;;5079127;28;20512;-80
2022/12/07 10:46:16;;;;;;;62.00;6.40;;;;;;;;;;5079275;28;20554;-80
2022/12/07 10:48:49;;;;;;;61.70;5.70;;;;;;;;;;5075803;28;20474;-80
2022/12/07 10:51:21;;;;;;;61.90;5.90;;;;;;;;;;5078807;28;20483;-80
2022/12/07 10:53:55;;;;;;;61.40;5.73;;;;;;;;;;5078590;28;20537;-80
2022/12/07 10:56:44;;;;;;;61.87;6.20;;;;;;;;;;5079315;28;20581;-80
2022/12/07 10:59:26;;;;;;;60.77;6.50;;;;;;;;;;5079936;28;20575;-80
2022/12/07 11:01:57;;;;;;;61.30;5.57;;;;;;;;;;5081045;28;20536;-79
2022/12/07 11:04:30;;;;;;;61.83;5.47;;;;;;;;;;5080897;28;20473;-80
2022/12/07 11:07:03;;;;;;;60.87;5.43;;;;;;;;;;5080902;28;20519;-80
2022/12/07 11:09:43;;;;;;;62.00;6.40;;;;;;;;;;5081242;28;20554;-79
2022/12/07 11:12:16;;;;;;;62.70;6.43;;;;;;;;;;5081586;28;20555;-80
2022/12/07 11:14:46;;;;;;;62.50;6.13;;;;;;;;;;5079317;28;20459;-77
2022/12/07 11:17:17;;;;;;;62.93;6.30;;;;;;;;;;5079730;28;20455;-79
2022/12/07 11:19:51;;;;;;;62.57;5.47;;;;;;;;;;5077409;28;20558;-76
2022/12/07 11:22:21;;;;;;;62.40;6.33;;;;;;;;;;5079836;28;20475;-79
2022/12/07 11:24:51;;;;;;;63.33;6.37;;;;;;;;;;5080943;28;20447;-79
2022/12/07 11:27:24;;;;;;;61.70;6.40;;;;;;;;;;5079573;28;20458;-78
2022/12/07 11:29:57;;;;;;;61.00;5.27;;;;;;;;;;5078443;28;20467;-78
2022/12/07 11:32:31;;;;;;;60.97;5.87;;;;;;;;;;5079598;28;20479;-79
2022/12/07 11:35:03;;;;;;;60.43;4.87;;;;;;;;;;5080859;28;20962;-80
2022/12/07 11:37:33;;;;;;;62.80;5.30;;;;;;;;;;5079506;28;20542;-80
2022/12/07 11:40:02;;;;;;;62.00;5.50;;;;;;;;;;5078731;28;20471;-80
2022/12/07 11:42:32;;;;;;;61.37;5.70;;;;;;;;;;5079233;28;20456;-80
2022/12/07 11:45:01;;;;;;;61.73;6.43;;;;;;;;;;5079306;28;20451;-80
2022/12/07 11:47:32;;;;;;;61.27;6.20;;;;;;;;;;5076707;28;20478;-77
2022/12/07 11:50:04;;;;;;;61.70;6.77;;;;;;;;;;5075024;28;20483;-77
2022/12/07 11:52:39;;;;;;;62.90;6.33;;;;;;;;;;5077439;28;20505;-79
2022/12/07 11:55:15;;;;;;;62.07;6.43;;;;;;;;;;5077935;28;20463;-79
2022/12/07 11:57:47;;;;;;;63.23;6.30;;;;;;;;;;5078403;28;20461;-79
2022/12/07 12:00:16;;;;;;;63.30;7.53;;;;;;;;;;5077641;28;20475;-79
2022/12/07 12:02:46;;;;;;;62.90;7.03;;;;;;;;;;5078106;28;20447;-79
2022/12/07 12:05:16;;;;;;;63.63;7.60;;;;;;;;;;5077894;28;20546;-79
2022/12/07 12:07:45;;;;;;;63.43;8.10;;;;;;;;;;5077691;28;20452;-79
2022/12/07 12:10:18;;;;;;;63.13;7.60;;;;;;;;;;5076499;28;20467;-79
2022/12/07 12:12:55;;;;;;;64.47;8.30;;;;;;;;;;5077734;28;20487;-78
2022/12/07 12:15:37;;;;;;;66.37;8.80;;;;;;;;;;5077824;28;20528;-79
2022/12/07 12:18:13;;;;;;;64.27;8.23;;;;;;;;;;5078141;28;20530;-79
2022/12/07 12:20:42;;;;;;;62.67;8.17;;;;;;;;;;5077146;28;20470;-79
2022/12/07 12:23:13;;;;;;;68.23;10.80;;;;;;;;;;5078079;28;20617;-79
2022/12/07 12:25:42;;;;;;;64.20;8.80;;;;;;;;;;5078573;28;20456;-80
2022/12/07 12:28:20;;;;;;;65.90;9.80;;;;;;;;;;5077902;28;20475;-80
2022/12/07 12:30:47;;;;;;;66.47;9.63;;;;;;;;;;5077571;28;20558;-80
2022/12/07 12:33:16;;;;;;;68.67;9.37;;;;;;;;;;5078433;28;20879;-80
2022/12/07 12:35:43;;;;;;;66.77;10.50;;;;;;;;;;5078194;28;20526;-80
2022/12/07 12:38:33;;;;;;;64.77;9.60;;;;;;;;;;5077885;28;20562;-80
2022/12/07 12:41:00;;;;;;;64.80;9.47;;;;;;;;;;5073824;28;20471;-80
2022/12/07 12:43:48;;;;;;;65.50;9.47;;;;;;;;;;5077687;28;20447;-79
2022/12/07 12:46:49;;;;;;;64.93;9.10;;;;;;;;;;5077497;28;20443;-80
2022/12/07 12:49:33;;;;;;;65.87;9.63;;;;;;;;;;5064159;28;20475;-79
2022/12/07 12:52:03;;;;;;;65.30;9.17;;;;;;;;;;5056014;28;20579;-79
2022/12/07 12:54:31;;;;;;;69.07;11.35;;;;;;;;;;5061806;28;20978;-77
2022/12/07 12:57:01;;;;;;;64.67;8.60;;;;;;;;;;5074493;28;20209;-77
2022/12/07 12:59:30;;;;;;;64.27;8.77;;;;;;;;;;5073199;28;20472;-78
2022/12/07 13:02:08;;;;;;;63.57;8.70;;;;;;;;;;5072205;28;20964;-76
2022/12/07 13:04:41;;;;;;;65.67;8.93;;;;;;;;;;5072867;28;20451;-76
2022/12/07 13:07:15;;;;;;;64.20;8.60;;;;;;;;;;5073037;28;20455;-76
2022/12/07 13:09:45;;;;;;;68.10;9.53;;;;;;;;;;5072631;28;21031;-76
2022/12/07 13:12:14;;;;;;;71.47;8.77;;;;;;;;;;5075455;28;20570;-76
2022/12/07 13:15:12;;;;;;;63.60;8.70;;;;;;;;;;5075682;28;20537;-78
2022/12/07 13:18:00;;;;;;;63.30;8.57;;;;;;;;;;5079164;28;20455;-75
2022/12/07 13:20:46;;;;;;;65.80;9.00;;;;;;;;;;5072041;28;20471;-75
2022/12/07 13:23:14;;;;;;;63.47;8.70;;;;;;;;;;5072525;28;20451;-81
2022/12/07 13:25:46;;;;;;;64.90;7.90;;;;;;;;;;5074692;28;20516;-76
2022/12/07 13:28:17;;;;;;;65.20;9.63;;;;;;;;;;5072511;28;20205;-75
2022/12/07 13:30:58;;;;;;;66.07;9.07;;;;;;;;;;5074912;28;20695;-80
2022/12/07 13:33:27;;;;;;;65.13;9.10;;;;;;;;;;5074597;28;20522;-75
2022/12/07 13:35:59;;;;;;;66.13;9.20;;;;;;;;;;5072786;28;20448;-76
2022/12/07 13:38:28;;;;;;;64.10;9.63;;;;;;;;;;5072648;28;20497;-77
2022/12/07 13:41:06;;;;;;;64.60;8.60;;;;;;;;;;5071542;28;20464;-77
2022/12/07 13:43:43;;;;;;;66.50;10.00;;;;;;;;;;5071980;28;20451;-79
2022/12/07 13:46:16;;;;;;;67.27;10.27;;;;;;;;;;5072599;28;20799;-76
2022/12/07 13:48:45;;;;;;;67.20;10.07;;;;;;;;;;5071428;28;20447;-76
2022/12/07 13:51:18;;;;;;;64.43;9.40;;;;;;;;;;5071777;28;20982;-77
2022/12/07 13:53:48;;;;;;;64.90;9.30;;;;;;;;;;5071978;28;20538;-77
2022/12/07 13:56:15;;;;;;;66.17;9.90;;;;;;;;;;5071783;28;20453;-78
2022/12/07 13:58:43;;;;;;;67.77;10.93;;;;;;;;;;5071335;28;20451;-77
2022/12/07 14:01:10;;;;;;;65.80;10.60;;;;;;;;;;5072056;28;20471;-77
2022/12/07 14:03:38;;;;;;;64.70;9.43;;;;;;;;;;5071674;28;20515;-75
2022/12/07 14:06:06;;;;;;;66.10;10.10;;;;;;;;;;5072271;28;20295;-77
2022/12/07 14:08:35;;;;;;;66.70;9.93;;;;;;;;;;5072567;28;20558;-77
2022/12/07 14:11:02;;;;;;;67.82;10.40;;;;;;;;;;5071085;28;20477;-77
2022/12/07 14:13:32;;;;;;;69.00;10.30;;;;;;;;;;5072002;28;20228;-78
2022/12/07 14:15:59;;;;;;;69.00;8.77;;;;;;;;;;5074259;28;20530;-80
2022/12/07 14:18:28;;;;;;;69.07;9.57;;;;;;;;;;5074693;28;20205;-79
2022/12/07 14:21:08;;;;;;;68.45;10.75;;;;;;;;;;5073245;28;20475;-78
2022/12/07 14:23:36;;;;;;;68.43;10.83;;;;;;;;;;5072338;28;20585;-77
2022/12/07 14:26:09;;;;;;;68.67;10.20;;;;;;;;;;5072054;28;20960;-77
2022/12/07 14:28:38;;;;;;;67.40;11.30;;;;;;;;;;5070867;28;20479;-76
2022/12/07 14:31:12;;;;;;;66.05;10.60;;;;;;;;;;5071958;28;20503;-76
2022/12/07 14:33:39;;;;;;;68.37;11.10;;;;;;;;;;5071766;28;20266;-77
2022/12/07 14:36:07;;;;;;;69.10;10.97;;;;;;;;;;5071346;28;20568;-76
2022/12/07 14:38:34;;;;;;;67.77;10.23;;;;;;;;;;5070448;28;20456;-76